首页
METAR-TAF:

METAR-TAF

机场 :

巴西利亚-儒塞利诺·库比契克总统国际机场

巴西利亚, 巴西利亚联邦行政区, 巴西

纬度: 15-52S, 经度: 047-56W, 海拔: 1061米

当前天气观测

该预报发布于23分钟前的21:00 UTC
风速6节,风向东转东南
温度 20°C
湿度 49%
气压 1025 hPa
能见度10公里或以上
散云层高于4500英尺

METAR: SBBR 182100Z 12006KT 9999 SCT045 20/09 Q1025

时间: 18:23 (21:23 UTC)

预报

该预报发布于5小时和23分钟前的16:00 UTC
预报有效从18日的 18点(UTC)到 19日的 18点(UTC)
风速5节,风向
能见度10公里或以上
散云层高于4000英尺
成为
从 18日的 20点(UTC)到 18日的 22点(UTC)
能见度10公里或以上
1500米以下无云,无积雨云
成为
从 19日的 08点(UTC)到 19日的 10点(UTC)
风速8节,风向
成为
从 19日的 12点(UTC)到 19日的 14点(UTC)
风速5节,风向
能见度10公里或以上
散云层高于3000英尺

TAF: SBBR 181600Z 1818/1918 10005KT 9999 SCT040 TX24/1818Z TN11/1908Z BECMG 1820/1822 CAVOK BECMG 1908/1910 09008KT BECMG 1912/1914 10005KT 9999 SCT030 RMK PDS

超过4000个机场的气象观测和天气预报(METAR&TAF报告)。

可查询的气象台以黄色和红色小点在地图上表示。

将鼠标移到小点上方,可查看气象台名称。

然后点击查看天气观测和预报。

如需切换地图:点击带黑十字的绿色按钮放大地图;点击带横线的绿色按钮缩小地图;或者点击绿色箭头查看邻近地区的地图。


METAR-TAF: